Delta Junction, Alaska
Current Conditions -  °F | °C
As of 12:29 AM on Friday 31 Oct 2014 (Local Time) from PABI Reporting Station
Light Snow Light Snow  
Wind Chill: -2°   Ceiling: 2300
Heat Index: 10°   Visibility: 2.5mi
Dew Point:   Wind: 8mph
Humidity: 87%   Direction: 260°W
Pressure: 29.49"   Gusts: NA
Location:  64.04°N, 145.73°W
Report Text: PABI 310829Z AUTO 26007KT 2 1/2SM -SN BR OVC023 M12/M14 A2949 RMK AO2 P0001 T11221139 TSNO
Loading
Personal Weather Stations






























Interactive Weather Map
Tropical Storm Tracking
New forecast layout! Learn more

10-Day Weather Forecast

Advertisements
Track Severe Weather on mobile